Time;durP1;ratioP1;P1;durP2;ratioP2;P2;SDS_P1;SDS_P2;PMS_P1;PMS_P2;Temp;Humidity;BMP_temperature;BMP_pressure;BME280_temperature;BME280_humidity;BME280_pressure;Samples;Min_cycle;Max_cycle;Signal;HPM_P1;HPM_P2
2023/08/30 00:00:17;;;;;;;;;;;;;;;13.63;83.49;100813.75;5026468;28;1374;-83
2023/08/30 00:02:42;;;;;;;;;;;;;;;13.66;83.43;100816.06;5044554;28;1091;-80
2023/08/30 00:05:09;;;;;;;;;;;;;;;13.65;83.41;100804.00;5045531;28;1894;-82
2023/08/30 00:07:34;;;;;;;;;;;;;;;13.67;83.52;100807.28;5047764;28;1021;-83
2023/08/30 00:09:59;;;;;;;;;;;;;;;13.63;83.42;100790.28;5051223;28;1135;-82
2023/08/30 00:12:25;;;;;;;;;;;;;;;13.68;83.38;100798.50;5051101;28;1086;-81
2023/08/30 00:14:50;;;;;;;;;;;;;;;13.68;83.47;100793.28;5038732;28;1258;-82
2023/08/30 00:17:19;;;;;;;;;;;;;;;13.69;83.31;100789.69;5038397;28;1198;-82
2023/08/30 00:19:45;;;;;;;;;;;;;;;13.69;83.41;100789.69;5050305;28;1299;-82
2023/08/30 00:22:10;;;;;;;;;;;;;;;13.66;83.37;100790.00;5033816;28;1293;-82
2023/08/30 00:24:35;;;;;;;;;;;;;;;13.64;83.31;100781.50;5050237;28;1910;-81
2023/08/30 00:27:01;;;;;;;;;;;;;;;13.60;83.21;100787.16;5051858;28;1119;-83
2023/08/30 00:29:26;;;;;;;;;;;;;;;13.53;83.24;100785.13;5045670;28;1554;-82
2023/08/30 00:31:51;;;;;;;;;;;;;;;13.48;83.25;100776.13;5046019;28;1134;-83
2023/08/30 00:34:16;;;;;;;;;;;;;;;13.45;83.46;100776.41;5049273;28;1072;-83
2023/08/30 00:36:41;;;;;;;;;;;;;;;13.42;83.63;100784.47;5049102;28;1082;-81
2023/08/30 00:39:08;;;;;;;;;;;;;;;13.41;83.74;100780.25;5044181;28;1056;-81
2023/08/30 00:41:33;;;;;;;;;;;;;;;13.42;83.60;100777.53;5049143;28;1226;-82
2023/08/30 00:44:01;;;;;;;;;;;;;;;13.43;83.72;100773.94;5053988;28;1234;-81
2023/08/30 00:46:27;;;;;;;;;;;;;;;13.44;83.72;100770.38;5048880;28;2024;-82
2023/08/30 00:48:52;;;;;;;;;;;;;;;13.44;83.57;100764.34;5047835;28;1175;-82
2023/08/30 00:51:18;;;;;;;;;;;;;;;13.44;83.69;100766.94;5048332;28;1036;-81
2023/08/30 00:53:43;;;;;;;;;;;;;;;13.41;83.68;100760.22;5048047;28;1232;-84
2023/08/30 00:56:09;;;;;;;;;;;;;;;13.38;83.65;100764.91;5039082;28;1170;-83
2023/08/30 00:58:34;;;;;;;;;;;;;;;13.37;83.67;100758.91;5034111;28;1152;-82
2023/08/30 01:01:00;;;;;;;;;;;;;;;13.39;83.56;100756.13;5046892;28;1197;-82
2023/08/30 01:03:26;;;;;;;;;;;;;;;13.37;83.39;100763.28;5047527;28;1142;-82
2023/08/30 01:05:51;;;;;;;;;;;;;;;13.39;83.24;100758.75;5042274;28;1890;-81
2023/08/30 01:08:16;;;;;;;;;;;;;;;13.38;83.38;100759.72;5043287;28;1247;-82
2023/08/30 01:10:50;;;;;;;;;;;;;;;13.36;83.26;100761.63;5030454;28;1264;-82
2023/08/30 01:13:18;;;;;;;;;;;;;;;13.29;83.26;100759.59;5041369;28;1487;-80
2023/08/30 01:15:46;;;;;;;;;;;;;;;13.23;83.66;100760.16;5041454;28;1583;-83
2023/08/30 01:18:12;;;;;;;;;;;;;;;13.18;83.67;100759.75;5048463;28;1105;-83
2023/08/30 01:20:38;;;;;;;;;;;;;;;13.16;83.39;100761.69;5055813;28;1374;-83
2023/08/30 01:23:28;;;;;;;;;;;;;;;13.12;83.44;100765.53;5035867;28;1235;-83
2023/08/30 01:26:08;;;;;;;;;;;;;;;13.05;83.74;100759.25;5049508;28;1961;-82
2023/08/30 01:28:33;;;;;;;;;;;;;;;13.00;84.00;100761.47;5047541;28;1173;-83
2023/08/30 01:31:00;;;;;;;;;;;;;;;12.99;83.97;100754.63;5047941;28;1157;-83
2023/08/30 01:33:27;;;;;;;;;;;;;;;13.00;83.96;100746.66;5047162;28;1257;-83
2023/08/30 01:35:53;;;;;;;;;;;;;;;13.02;83.88;100754.34;5047424;28;1020;-81
2023/08/30 01:38:19;;;;;;;;;;;;;;;12.97;84.02;100756.56;5033379;28;1647;-82
2023/08/30 01:40:45;;;;;;;;;;;;;;;12.94;84.24;100746.41;5037804;28;1286;-82
2023/08/30 01:43:10;;;;;;;;;;;;;;;12.94;83.94;100751.63;5038372;28;1387;-83
2023/08/30 01:45:38;;;;;;;;;;;;;;;12.94;84.19;100746.41;5034523;28;1958;-84
2023/08/30 01:48:05;;;;;;;;;;;;;;;12.94;83.92;100749.03;5034868;28;1179;-81
2023/08/30 01:50:31;;;;;;;;;;;;;;;12.97;84.02;100751.34;5046156;28;944;-83
2023/08/30 01:52:56;;;;;;;;;;;;;;;12.95;83.64;100748.88;5045425;28;1168;-83
2023/08/30 01:55:22;;;;;;;;;;;;;;;12.93;83.61;100750.00;5042585;28;1176;-83
2023/08/30 01:57:48;;;;;;;;;;;;;;;12.93;83.29;100750.00;5047779;28;1265;-83
2023/08/30 02:00:14;;;;;;;;;;;;;;;12.89;83.55;100748.63;5023834;28;1293;-83
2023/08/30 02:02:39;;;;;;;;;;;;;;;12.89;83.35;100749.44;5046679;28;1115;-83
2023/08/30 02:05:04;;;;;;;;;;;;;;;12.87;83.53;100751.38;5043431;28;1957;-83
2023/08/30 02:07:48;;;;;;;;;;;;;;;12.85;83.34;100742.09;5046886;28;1079;-83
2023/08/30 02:10:16;;;;;;;;;;;;;;;12.81;83.46;100746.75;5042512;28;1270;-83
2023/08/30 02:12:54;;;;;;;;;;;;;;;12.77;83.52;100740.97;5047174;28;1119;-81
2023/08/30 02:15:19;;;;;;;;;;;;;;;12.75;83.53;100737.72;5044725;28;1211;-83
2023/08/30 02:17:45;;;;;;;;;;;;;;;12.74;83.78;100740.47;5049447;28;1171;-84
2023/08/30 02:20:10;;;;;;;;;;;;;;;12.70;83.38;100734.72;5049313;28;1078;-82
2023/08/30 02:22:36;;;;;;;;;;;;;;;12.67;83.41;100740.22;5047219;28;1261;-84
2023/08/30 02:25:04;;;;;;;;;;;;;;;12.65;83.93;100728.28;5041796;28;1886;-81
2023/08/30 02:27:30;;;;;;;;;;;;;;;12.63;83.43;100733.63;5047261;28;1140;-83
2023/08/30 02:29:56;;;;;;;;;;;;;;;12.67;83.65;100734.16;5047593;28;1288;-83
2023/08/30 02:32:21;;;;;;;;;;;;;;;12.65;83.93;100728.28;5047119;28;1173;-81
2023/08/30 02:34:49;;;;;;;;;;;;;;;12.64;83.43;100727.47;5042230;28;1309;-82
2023/08/30 02:37:15;;;;;;;;;;;;;;;12.62;83.72;100726.81;5042466;28;1276;-82
2023/08/30 02:39:40;;;;;;;;;;;;;;;12.62;83.58;100721.59;5040581;28;1460;-83
2023/08/30 02:42:05;;;;;;;;;;;;;;;12.61;84.25;100725.13;5043341;28;1033;-83
2023/08/30 02:44:30;;;;;;;;;;;;;;;12.63;83.75;100725.84;5044824;28;1957;-83
2023/08/30 02:46:56;;;;;;;;;;;;;;;12.61;84.17;100719.13;5041258;28;1299;-82
2023/08/30 02:49:21;;;;;;;;;;;;;;;12.59;83.98;100721.88;5046054;28;1411;-83
2023/08/30 02:51:46;;;;;;;;;;;;;;;12.59;83.95;100711.47;5033613;28;1284;-83
2023/08/30 02:54:13;;;;;;;;;;;;;;;12.57;84.21;100708.19;5040101;28;1181;-83
2023/08/30 02:56:38;;;;;;;;;;;;;;;12.55;84.08;100715.28;5045828;28;1514;-83
2023/08/30 02:59:03;;;;;;;;;;;;;;;12.56;83.99;100706.56;5031420;28;1312;-83
2023/08/30 03:01:28;;;;;;;;;;;;;;;12.54;83.41;100702.44;5044632;28;1292;-85
2023/08/30 03:03:54;;;;;;;;;;;;;;;12.51;83.48;100706.16;5045445;28;1285;-83
2023/08/30 03:06:20;;;;;;;;;;;;;;;12.49;83.92;100700.25;5045493;28;1977;-82
2023/08/30 03:08:45;;;;;;;;;;;;;;;12.47;83.72;100702.19;5045926;28;1075;-83
2023/08/30 03:11:11;;;;;;;;;;;;;;;12.46;83.88;100703.16;5047311;28;1332;-83
2023/08/30 03:13:37;;;;;;;;;;;;;;;12.45;83.69;100693.72;5046523;28;1346;-83
2023/08/30 03:16:09;;;;;;;;;;;;;;;12.42;83.90;100699.16;5030190;28;1480;-83
2023/08/30 03:18:34;;;;;;;;;;;;;;;12.38;84.23;100693.41;5046591;28;1422;-84
2023/08/30 03:21:03;;;;;;;;;;;;;;;12.36;83.84;100691.94;5048937;28;1098;-83
2023/08/30 03:23:31;;;;;;;;;;;;;;;12.32;84.16;100698.38;5042756;28;1213;-84
2023/08/30 03:25:56;;;;;;;;;;;;;;;12.28;84.43;100686.63;5043287;28;1955;-82
2023/08/30 03:28:22;;;;;;;;;;;;;;;12.27;84.06;100677.16;5044197;28;1258;-81
2023/08/30 03:30:47;;;;;;;;;;;;;;;12.25;84.20;100677.31;5043118;28;1155;-82
2023/08/30 03:33:13;;;;;;;;;;;;;;;12.20;84.37;100669.91;5040691;28;1251;-84
2023/08/30 03:35:38;;;;;;;;;;;;;;;12.18;84.21;100671.03;5030719;28;1294;-82
2023/08/30 03:38:03;;;;;;;;;;;;;;;12.14;84.14;100667.06;5046635;28;1137;-82
2023/08/30 03:40:29;;;;;;;;;;;;;;;12.13;84.21;100658.44;5049503;28;1268;-83
2023/08/30 03:42:54;;;;;;;;;;;;;;;12.12;84.69;100654.19;5049860;28;1161;-83
2023/08/30 03:45:19;;;;;;;;;;;;;;;12.11;84.48;100646.56;5045967;28;1953;-82
2023/08/30 03:47:45;;;;;;;;;;;;;;;12.10;84.77;100647.47;5021544;28;1380;-82
2023/08/30 03:50:10;;;;;;;;;;;;;;;12.07;84.50;100640.78;5032274;28;1180;-82
2023/08/30 03:52:35;;;;;;;;;;;;;;;12.06;85.06;100636.56;5044893;28;1060;-83
2023/08/30 03:55:00;;;;;;;;;;;;;;;12.05;84.64;100624.53;5040236;28;1324;-83
2023/08/30 03:57:26;;;;;;;;;;;;;;;12.01;85.22;100617.97;5044672;28;1059;-82
2023/08/30 03:59:51;;;;;;;;;;;;;;;11.97;84.62;100616.59;5044225;28;993;-83
2023/08/30 04:02:16;;;;;;;;;;;;;;;11.98;85.48;100613.03;5043281;28;1095;-84
2023/08/30 04:04:41;;;;;;;;;;;;;;;11.95;85.46;100613.31;5046217;28;1900;-83
2023/08/30 04:07:06;;;;;;;;;;;;;;;11.93;84.80;100610.06;5048697;28;1034;-83
2023/08/30 04:09:32;;;;;;;;;;;;;;;11.90;85.26;100611.13;5035062;28;1321;-85
2023/08/30 04:11:58;;;;;;;;;;;;;;;11.87;85.73;100614.03;5049775;28;1051;-83
2023/08/30 04:14:23;;;;;;;;;;;;;;;11.87;85.41;100605.38;5046353;28;1265;-84
2023/08/30 04:16:48;;;;;;;;;;;;;;;11.84;85.76;100605.69;5029943;28;1295;-84
2023/08/30 04:19:13;;;;;;;;;;;;;;;11.83;85.98;100604.03;5042168;28;1467;-82
2023/08/30 04:21:39;;;;;;;;;;;;;;;11.81;85.79;100605.91;5047344;28;1083;-82
2023/08/30 04:24:04;;;;;;;;;;;;;;;11.79;85.52;100602.63;5024067;28;1300;-84
2023/08/30 04:26:29;;;;;;;;;;;;;;;11.74;86.06;100599.63;5047662;28;1930;-81
2023/08/30 04:28:55;;;;;;;;;;;;;;;11.73;86.04;100598.00;5044161;28;1257;-84
2023/08/30 04:31:20;;;;;;;;;;;;;;;11.70;85.73;100594.72;5023460;28;1338;-83
2023/08/30 04:33:45;;;;;;;;;;;;;;;11.66;86.12;100598.53;5049327;28;1157;-82
2023/08/30 04:36:10;;;;;;;;;;;;;;;11.62;86.08;100602.38;5048854;28;1209;-83
2023/08/30 04:38:36;;;;;;;;;;;;;;;11.58;86.84;100595.78;5050551;28;1076;-82
2023/08/30 04:41:01;;;;;;;;;;;;;;;11.55;86.73;100600.47;5047250;28;1187;-84
2023/08/30 04:43:26;;;;;;;;;;;;;;;11.56;86.75;100596.91;5034780;28;1141;-83
2023/08/30 04:45:51;;;;;;;;;;;;;;;11.55;87.06;100596.09;5048502;28;1969;-84
2023/08/30 04:48:17;;;;;;;;;;;;;;;11.52;87.35;100593.75;5032279;28;1446;-82
2023/08/30 04:50:42;;;;;;;;;;;;;;;11.49;88.02;100591.44;5048734;28;1111;-84
2023/08/30 04:53:07;;;;;;;;;;;;;;;11.50;87.82;100585.28;5037887;28;1667;-84
2023/08/30 04:55:32;;;;;;;;;;;;;;;11.50;87.47;100577.50;5037280;28;1338;-83
2023/08/30 04:57:58;;;;;;;;;;;;;;;11.48;87.16;100579.41;5051279;28;1211;-83
2023/08/30 05:00:23;;;;;;;;;;;;;;;11.49;87.83;100578.47;5048108;28;1200;-82
2023/08/30 05:02:48;;;;;;;;;;;;;;;11.50;87.18;100574.06;5052890;28;1425;-83
2023/08/30 05:05:14;;;;;;;;;;;;;;;11.48;87.94;100573.41;5030928;28;1947;-82
2023/08/30 05:07:39;;;;;;;;;;;;;;;11.46;87.79;100560.53;5033568;28;1477;-83
2023/08/30 05:10:06;;;;;;;;;;;;;;;11.46;88.39;100560.53;5052906;28;1149;-83
2023/08/30 05:12:31;;;;;;;;;;;;;;;11.45;88.16;100561.50;5053902;28;1121;-83
2023/08/30 05:14:56;;;;;;;;;;;;;;;11.45;89.04;100564.09;5034843;28;1299;-83
2023/08/30 05:17:21;;;;;;;;;;;;;;;11.47;88.21;100551.81;5049289;28;1299;-82
2023/08/30 05:19:47;;;;;;;;;;;;;;;11.48;88.03;100556.03;5034870;28;1272;-83
2023/08/30 05:22:12;;;;;;;;;;;;;;;11.49;88.23;100549.88;5047612;28;1226;-82
2023/08/30 05:24:37;;;;;;;;;;;;;;;11.49;89.12;100557.69;5045977;28;1913;-83
2023/08/30 05:27:02;;;;;;;;;;;;;;;11.53;88.12;100560.84;5042063;28;1333;-83
2023/08/30 05:29:28;;;;;;;;;;;;;;;11.53;89.63;100556.47;5043540;28;1269;-83
2023/08/30 05:31:53;;;;;;;;;;;;;;;11.58;88.89;100554.25;5033683;28;1510;-86
2023/08/30 05:34:18;;;;;;;;;;;;;;;11.60;89.71;100557.53;5047337;28;1248;-83
2023/08/30 05:36:43;;;;;;;;;;;;;;;11.62;88.96;100553.00;5029176;28;1283;-83
2023/08/30 05:39:09;;;;;;;;;;;;;;;11.64;89.73;100548.53;5044774;28;1423;-83
2023/08/30 05:41:34;;;;;;;;;;;;;;;11.67;89.93;100537.00;5043995;28;1155;-84
2023/08/30 05:43:59;;;;;;;;;;;;;;;11.70;89.71;100540.16;5046069;28;1099;-84
2023/08/30 05:46:24;;;;;;;;;;;;;;;11.74;90.41;100537.28;5046980;28;1882;-86
2023/08/30 05:48:50;;;;;;;;;;;;;;;11.79;90.06;100535.06;5032913;28;1358;-85
2023/08/30 05:51:15;;;;;;;;;;;;;;;11.81;90.36;100533.16;5025252;28;1152;-80
2023/08/30 05:53:40;;;;;;;;;;;;;;;11.85;90.50;100529.34;5030045;28;1251;-85
2023/08/30 05:56:05;;;;;;;;;;;;;;;11.88;89.94;100529.09;5027211;28;1455;-83
2023/08/30 05:58:30;;;;;;;;;;;;;;;11.90;89.90;100532.34;5044296;28;1013;-85
2023/08/30 06:01:03;;;;;;;;;;;;;;;11.95;90.13;100535.34;5045898;28;1104;-84
2023/08/30 06:03:28;;;;;;;;;;;;;;;11.98;89.87;100545.44;5029791;28;1410;-83
2023/08/30 06:05:53;;;;;;;;;;;;;;;12.03;90.80;100538.06;5046035;28;1890;-84
2023/08/30 06:08:19;;;;;;;;;;;;;;;12.07;90.76;100544.63;5045711;28;1253;-84
2023/08/30 06:10:44;;;;;;;;;;;;;;;12.12;90.49;100542.41;5030014;28;1203;-84
2023/08/30 06:13:09;;;;;;;;;;;;;;;12.16;90.30;100538.56;5045031;28;1073;-82
2023/08/30 06:15:38;;;;;;;;;;;;;;;12.21;90.82;100538.97;5044985;28;1136;-84
2023/08/30 06:18:04;;;;;;;;;;;;;;;12.27;90.58;100547.13;5044795;28;1067;-86
2023/08/30 06:20:29;;;;;;;;;;;;;;;12.31;90.99;100546.72;5044633;28;1179;-87
2023/08/30 06:22:54;;;;;;;;;;;;;;;12.36;90.61;100546.28;5025703;28;1230;-85
2023/08/30 06:25:19;;;;;;;;;;;;;;;12.39;90.91;100538.22;5041600;28;1955;-85
2023/08/30 06:27:55;;;;;;;;;;;;;;;12.41;90.66;100536.28;5045300;28;1224;-83
2023/08/30 06:30:20;;;;;;;;;;;;;;;12.45;91.15;100542.84;5043277;28;1177;-84
2023/08/30 06:32:45;;;;;;;;;;;;;;;12.46;90.91;100539.28;5047952;28;1137;-85
2023/08/30 06:35:11;;;;;;;;;;;;;;;12.46;91.59;100541.88;5044939;28;1220;-85
2023/08/30 06:37:36;;;;;;;;;;;;;;;12.50;91.28;100543.19;5040962;28;1581;-84
2023/08/30 06:40:03;;;;;;;;;;;;;;;12.53;91.85;100536.91;5024621;28;1200;-82
2023/08/30 06:42:28;;;;;;;;;;;;;;;12.55;92.15;100540.97;5046746;28;1236;-84
2023/08/30 06:44:53;;;;;;;;;;;;;;;12.58;91.63;100543.31;5043809;28;1967;-81
2023/08/30 06:47:18;;;;;;;;;;;;;;;12.62;91.80;100539.47;5048155;28;1268;-85
2023/08/30 06:49:44;;;;;;;;;;;;;;;12.65;92.45;100544.38;5045161;28;993;-83
2023/08/30 06:52:09;;;;;;;;;;;;;;;12.68;92.07;100549.28;5039103;28;1131;-85
2023/08/30 06:54:35;;;;;;;;;;;;;;;12.71;92.16;100548.16;5021768;28;1025;-83
2023/08/30 06:57:00;;;;;;;;;;;;;;;12.71;91.64;100548.97;5047485;28;1182;-84
2023/08/30 06:59:26;;;;;;;;;;;;;;;12.71;92.38;100548.16;5028956;28;1431;-83
2023/08/30 07:01:52;;;;;;;;;;;;;;;12.71;92.94;100548.97;5023050;28;1235;-84
2023/08/30 07:04:17;;;;;;;;;;;;;;;12.71;93.19;100548.16;5022523;28;1600;-85
2023/08/30 07:06:42;;;;;;;;;;;;;;;12.71;92.95;100548.97;5043608;28;1906;-84
2023/08/30 07:09:07;;;;;;;;;;;;;;;12.71;93.97;100543.78;5042217;28;1093;-85
2023/08/30 07:11:33;;;;;;;;;;;;;;;12.72;94.17;100539.38;5024861;28;1230;-83
2023/08/30 07:13:59;;;;;;;;;;;;;;;12.74;94.45;100530.50;5043228;28;1197;-83
2023/08/30 07:16:24;;;;;;;;;;;;;;;12.75;94.36;100534.72;5037818;28;1702;-86
2023/08/30 07:18:50;;;;;;;;;;;;;;;12.74;94.62;100532.28;5036809;28;1331;-85
2023/08/30 07:21:15;;;;;;;;;;;;;;;12.72;94.46;100524.59;5051483;28;1285;-86
2023/08/30 07:23:40;;;;;;;;;;;;;;;12.69;95.20;100519.69;5046450;28;1260;-84
2023/08/30 07:26:05;;;;;;;;;;;;;;;12.66;95.18;100524.38;5043145;28;1898;-84
2023/08/30 07:28:30;;;;;;;;;;;;;;;12.64;94.98;100521.91;5047341;28;1036;-83
2023/08/30 07:31:05;;;;;;;;;;;;;;;12.64;95.12;100521.09;5045361;28;1118;-83
2023/08/30 07:33:30;;;;;;;;;;;;;;;12.60;95.70;100515.34;5046013;28;1128;-82
2023/08/30 07:35:55;;;;;;;;;;;;;;;12.57;96.11;100515.66;5043740;28;1125;-81
2023/08/30 07:38:21;;;;;;;;;;;;;;;12.55;95.93;100501.97;5045692;28;1655;-82
2023/08/30 07:40:46;;;;;;;;;;;;;;;12.54;95.74;100492.53;5024777;28;1657;-82
2023/08/30 07:43:11;;;;;;;;;;;;;;;12.53;96.53;100488.28;5045171;28;1314;-82
2023/08/30 07:45:36;;;;;;;;;;;;;;;12.55;96.88;100475.94;5044826;28;2061;-82
2023/08/30 07:48:01;;;;;;;;;;;;;;;12.57;96.51;100479.25;5042916;28;1121;-82
2023/08/30 07:50:26;;;;;;;;;;;;;;;12.59;96.73;100466.06;5045150;28;1094;-82
2023/08/30 07:52:52;;;;;;;;;;;;;;;12.60;97.16;100468.53;5039209;28;1296;-82
2023/08/30 07:55:17;;;;;;;;;;;;;;;12.59;96.73;100466.91;5045200;28;1355;-82
2023/08/30 07:57:42;;;;;;;;;;;;;;;12.60;97.24;100460.72;5042579;28;1435;-82
2023/08/30 08:00:08;;;;;;;;;;;;;;;12.61;97.43;100454.53;5019300;28;1393;-82
2023/08/30 08:02:33;;;;;;;;;;;;;;;12.60;98.02;100452.09;5044076;28;1083;-82
2023/08/30 08:04:59;;;;;;;;;;;;;;;12.59;97.85;100456.50;5033035;28;1949;-82
2023/08/30 08:07:24;;;;;;;;;;;;;;;12.57;97.76;100458.44;5042517;28;1106;-83
2023/08/30 08:09:49;;;;;;;;;;;;;;;12.56;98.58;100459.41;5030664;28;1284;-82
2023/08/30 08:12:14;;;;;;;;;;;;;;;12.55;98.33;100452.53;5029926;28;1467;-82
2023/08/30 08:14:39;;;;;;;;;;;;;;;12.54;98.39;100448.31;5042503;28;981;-82
2023/08/30 08:17:05;;;;;;;;;;;;;;;12.54;98.76;100450.91;5045639;28;1183;-83
2023/08/30 08:19:30;;;;;;;;;;;;;;;12.54;99.18;100443.09;5044856;28;1176;-84
2023/08/30 08:21:55;;;;;;;;;;;;;;;12.55;99.23;100449.94;5026174;28;1305;-82
2023/08/30 08:24:20;;;;;;;;;;;;;;;12.56;99.48;100445.53;5047825;28;1314;-83
2023/08/30 08:26:46;;;;;;;;;;;;;;;12.55;99.12;100444.72;5040593;28;1977;-83
2023/08/30 08:29:11;;;;;;;;;;;;;;;12.54;99.39;100443.09;5048422;28;1182;-84
2023/08/30 08:31:36;;;;;;;;;;;;;;;12.56;99.93;100441.19;5029640;28;1199;-84
2023/08/30 08:34:06;;;;;;;;;;;;;;;12.56;100.00;100446.38;5048532;28;1114;-83
2023/08/30 08:36:32;;;;;;;;;;;;;;;12.61;100.00;100433.72;5049315;28;1169;-84
2023/08/30 08:38:57;;;;;;;;;;;;;;;12.64;100.00;100438.66;5050125;28;1128;-84
2023/08/30 08:41:26;;;;;;;;;;;;;;;12.67;99.77;100435.78;5045839;28;1224;-83
2023/08/30 08:43:51;;;;;;;;;;;;;;;12.65;100.00;100435.09;5033713;28;1302;-84
2023/08/30 08:46:18;;;;;;;;;;;;;;;12.68;100.00;100429.59;5035738;28;1963;-82
2023/08/30 08:48:44;;;;;;;;;;;;;;;12.71;100.00;100434.50;5049053;28;1223;-84
2023/08/30 08:51:10;;;;;;;;;;;;;;;12.75;100.00;100425.44;5047797;28;1117;-86
2023/08/30 08:53:36;;;;;;;;;;;;;;;12.77;100.00;100433.88;5028857;28;1438;-85
2023/08/30 08:56:02;;;;;;;;;;;;;;;12.80;100.00;100426.78;5047251;28;1247;-85
2023/08/30 08:58:27;;;;;;;;;;;;;;;12.84;100.00;100428.09;5045949;28;1164;-83
2023/08/30 09:00:52;;;;;;;;;;;;;;;12.88;100.00;100432.03;5041731;28;1078;-85
2023/08/30 09:03:18;;;;;;;;;;;;;;;12.91;100.00;100418.75;5040900;28;1185;-85
2023/08/30 09:05:46;;;;;;;;;;;;;;;12.93;100.00;100416.78;5045680;28;1910;-82
2023/08/30 09:08:13;;;;;;;;;;;;;;;12.93;100.00;100417.59;5044344;28;1273;-81
2023/08/30 09:10:39;;;;;;;;;;;;;;;12.95;100.00;100414.84;5034670;28;1337;-87
2023/08/30 09:13:04;;;;;;;;;;;;;;;12.99;100.00;100410.97;5047661;28;1148;-86
2023/08/30 09:15:32;;;;;;;;;;;;;;;13.01;100.00;100409.84;5050949;28;1212;-86
2023/08/30 09:17:58;;;;;;;;;;;;;;;13.04;100.00;100419.16;5037683;28;1308;-87
2023/08/30 09:20:23;;;;;;;;;;;;;;;13.09;100.00;100414.31;5049484;28;1133;-85
2023/08/30 09:22:49;;;;;;;;;;;;;;;13.15;100.00;100413.72;5048190;28;1275;-86
2023/08/30 09:25:24;;;;;;;;;;;;;;;13.23;100.00;100412.97;5052198;28;1894;-88
2023/08/30 09:27:49;;;;;;;;;;;;;;;13.36;100.00;100409.97;5036971;28;1201;-86
2023/08/30 09:30:21;;;;;;;;;;;;;;;13.46;100.00;100414.09;5027973;28;1218;-86
2023/08/30 09:32:46;;;;;;;;;;;;;;;13.61;100.00;100411.75;5051316;28;1275;-86
2023/08/30 09:35:11;;;;;;;;;;;;;;;13.70;100.00;100408.19;5046737;28;1122;-85
2023/08/30 09:37:37;;;;;;;;;;;;;;;13.84;100.00;100411.22;5048759;28;1161;-84
2023/08/30 09:40:03;;;;;;;;;;;;;;;13.93;100.00;100405.03;5047158;28;1274;-84
2023/08/30 09:42:28;;;;;;;;;;;;;;;14.02;100.00;100389.28;5030309;28;1491;-81
2023/08/30 09:44:54;;;;;;;;;;;;;;;14.10;100.00;100391.09;5030232;28;1890;-87
2023/08/30 09:47:19;;;;;;;;;;;;;;;14.21;100.00;100388.19;5031405;28;1290;-82
2023/08/30 09:49:47;;;;;;;;;;;;;;;14.27;100.00;100379.72;5048232;28;1189;-87
2023/08/30 09:52:15;;;;;;;;;;;;;;;14.32;100.00;100384.47;5046337;28;1196;-85
2023/08/30 09:54:41;;;;;;;;;;;;;;;14.38;100.00;100388.22;5027966;28;1330;-85
2023/08/30 09:57:07;;;;;;;;;;;;;;;14.44;100.00;100392.78;5046419;28;1121;-86
2023/08/30 09:59:32;;;;;;;;;;;;;;;14.48;100.00;100387.13;5028740;28;1458;-87
2023/08/30 10:02:00;;;;;;;;;;;;;;;14.54;100.00;100383.06;5046838;28;1102;-83
2023/08/30 10:04:26;;;;;;;;;;;;;;;14.64;100.00;100388.94;5029895;28;1242;-86
2023/08/30 10:06:51;;;;;;;;;;;;;;;14.73;100.00;100387.16;5046536;28;1894;-88
2023/08/30 10:09:18;;;;;;;;;;;;;;;14.81;100.00;100374.94;5045965;28;1144;-86
2023/08/30 10:11:44;;;;;;;;;;;;;;;14.97;100.00;100378.53;5046044;28;1039;-83
2023/08/30 10:14:11;;;;;;;;;;;;;;;15.11;100.00;100377.84;5036078;28;1321;-87
2023/08/30 10:16:47;;;;;;;;;;;;;;;15.20;100.00;100369.03;5046155;28;1043;-84
2023/08/30 10:19:15;;;;;;;;;;;;;;;15.34;100.00;100372.72;5044338;28;1633;-86
2023/08/30 10:21:41;;;;;;;;;;;;;;;15.45;100.00;100366.34;5045200;28;986;-87
2023/08/30 10:24:09;;;;;;;;;;;;;;;15.57;100.00;100360.56;5051066;28;1137;-83
2023/08/30 10:26:35;;;;;;;;;;;;;;;15.66;100.00;100364.03;5052435;28;1969;-86
2023/08/30 10:29:03;;;;;;;;;;;;;;;15.72;100.00;100376.41;5033405;28;1256;-84
2023/08/30 10:31:29;;;;;;;;;;;;;;;15.75;100.00;100368.22;5028601;28;1193;-85
2023/08/30 10:33:57;;;;;;;;;;;;;;;15.88;100.00;100368.47;5050843;28;1377;-86
2023/08/30 10:36:25;;;;;;;;;;;;;;;15.95;100.00;100363.41;5046820;28;1183;-88
2023/08/30 10:38:54;;;;;;;;;;;;;;;16.05;100.00;100371.00;5047637;28;1271;-86
2023/08/30 10:41:19;;;;;;;;;;;;;;;16.09;100.00;100365.28;5033931;28;1443;-87
2023/08/30 10:43:49;;;;;;;;;;;;;;;16.12;100.00;100364.13;5046101;28;1206;-85
2023/08/30 10:46:14;;;;;;;;;;;;;;;16.20;100.00;100357.03;5045380;28;1945;-87
2023/08/30 10:48:41;;;;;;;;;;;;;;;16.24;100.00;100356.69;5047764;28;1106;-84
2023/08/30 10:51:16;;;;;;;;;;;;;;;16.24;100.00;100365.34;5044606;28;1164;-87
2023/08/30 10:53:42;;;;;;;;;;;;;;;16.21;100.00;100384.00;5032603;28;1318;-86
2023/08/30 10:56:09;;;;;;;;;;;;;;;16.17;100.00;100387.94;5029186;28;1132;-86
2023/08/30 10:58:42;;;;;;;;;;;;;;;16.07;100.00;100379.53;5027650;28;1370;-87
2023/08/30 11:01:09;;;;;;;;;;;;;;;16.04;100.00;100387.69;5045048;28;1247;-87
2023/08/30 11:03:35;;;;;;;;;;;;;;;16.09;99.95;100380.16;5045212;28;1286;-83
2023/08/30 11:06:01;;;;;;;;;;;;;;;16.08;100.00;100378.53;5048443;28;1905;-86
2023/08/30 11:08:28;;;;;;;;;;;;;;;16.14;98.30;100393.53;5046854;28;1125;-84
2023/08/30 11:11:00;;;;;;;;;;;;;;;16.16;97.49;100394.97;5033954;28;1515;-85
2023/08/30 11:13:26;;;;;;;;;;;;;;;16.15;97.06;100395.97;5046288;28;1242;-86
2023/08/30 11:15:51;;;;;;;;;;;;;;;16.29;95.42;100401.47;5043452;28;1687;-86
2023/08/30 11:18:18;;;;;;;;;;;;;;;16.19;94.33;100391.22;5045895;28;1176;-85
2023/08/30 11:20:44;;;;;;;;;;;;;;;16.19;93.14;100393.84;5047653;28;1282;-86
2023/08/30 11:23:09;;;;;;;;;;;;;;;16.36;93.38;100398.00;5031548;28;1449;-86
2023/08/30 11:25:35;;;;;;;;;;;;;;;16.41;90.30;100395.66;5028201;28;1890;-86
2023/08/30 11:28:03;;;;;;;;;;;;;;;16.55;90.12;100398.53;5036117;28;1306;-84
2023/08/30 11:30:31;;;;;;;;;;;;;;;16.60;91.08;100398.81;5029292;28;1054;-87
2023/08/30 11:33:09;;;;;;;;;;;;;;;16.72;92.20;100402.69;5047640;28;1229;-87
2023/08/30 11:35:37;;;;;;;;;;;;;;;16.76;90.75;100413.63;5047369;28;1021;-85
2023/08/30 11:38:05;;;;;;;;;;;;;;;16.70;89.50;100404.63;5025332;28;1242;-86
2023/08/30 11:40:32;;;;;;;;;;;;;;;16.64;88.81;100406.16;5029886;28;1312;-85
2023/08/30 11:42:57;;;;;;;;;;;;;;;16.78;86.68;100416.88;5041165;28;1533;-86
2023/08/30 11:45:25;;;;;;;;;;;;;;;16.75;86.70;100412.00;5040972;28;1890;-84
2023/08/30 11:47:52;;;;;;;;;;;;;;;16.71;87.04;100422.00;5045322;28;1358;-83
2023/08/30 11:50:20;;;;;;;;;;;;;;;16.61;81.51;100424.00;5043347;28;1440;-83
2023/08/30 11:52:46;;;;;;;;;;;;;;;16.53;85.77;100437.16;5041256;28;1515;-85
2023/08/30 11:55:12;;;;;;;;;;;;;;;16.55;85.75;100440.41;5042344;28;1157;-83
2023/08/30 11:57:38;;;;;;;;;;;;;;;16.40;86.26;100441.16;5029553;28;1471;-85
2023/08/30 12:00:07;;;;;;;;;;;;;;;16.29;87.98;100444.16;5048873;28;1216;-86
2023/08/30 12:02:32;;;;;;;;;;;;;;;16.24;88.52;100445.66;5037998;28;1364;-87
2023/08/30 12:04:59;;;;;;;;;;;;;;;16.11;88.58;100451.41;5043749;28;1957;-84
2023/08/30 12:07:26;;;;;;;;;;;;;;;16.00;90.07;100452.63;5047122;28;1336;-82
2023/08/30 12:09:51;;;;;;;;;;;;;;;16.00;90.52;100457.03;5050842;28;1566;-83
2023/08/30 12:12:19;;;;;;;;;;;;;;;16.04;91.38;100455.72;5045163;28;1369;-84
2023/08/30 12:14:44;;;;;;;;;;;;;;;16.10;91.94;100455.03;5042034;28;1432;-83
2023/08/30 12:17:12;;;;;;;;;;;;;;;16.18;92.38;100453.22;5021339;28;1655;-84
2023/08/30 12:19:37;;;;;;;;;;;;;;;16.29;93.11;100454.63;5042911;28;987;-84
2023/08/30 12:22:08;;;;;;;;;;;;;;;16.41;91.36;100442.78;5040432;28;1463;-82
2023/08/30 12:24:40;;;;;;;;;;;;;;;16.52;92.63;100448.63;5024814;28;1218;-83
2023/08/30 12:27:05;;;;;;;;;;;;;;;16.68;91.48;100451.13;5022383;28;1902;-84
2023/08/30 12:29:31;;;;;;;;;;;;;;;16.84;91.34;100448.41;5043299;28;1456;-81
2023/08/30 12:31:56;;;;;;;;;;;;;;;16.91;91.09;100454.56;5045261;28;1260;-83
2023/08/30 12:34:21;;;;;;;;;;;;;;;17.03;90.20;100462.03;5046419;28;1303;-85
2023/08/30 12:36:46;;;;;;;;;;;;;;;17.06;89.62;100451.22;5044742;28;1516;-83
2023/08/30 12:39:11;;;;;;;;;;;;;;;17.15;87.02;100460.66;5043328;28;1104;-85